createdAt,value
2019-05-12T00:00:03.467Z,53.40
2019-05-12T00:01:03.482Z,53.30
2019-05-12T00:02:03.440Z,53.30
2019-05-12T00:03:03.427Z,53.30
2019-05-12T00:04:03.441Z,53.30
2019-05-12T00:05:03.409Z,53.30
2019-05-12T00:06:03.442Z,53.20
2019-05-12T00:07:03.391Z,53.20
2019-05-12T00:08:03.375Z,53.20
2019-05-12T00:09:03.369Z,53.20
2019-05-12T00:10:03.360Z,53.20
2019-05-12T00:11:03.340Z,53.20
2019-05-12T00:12:03.384Z,53.20
2019-05-12T00:13:03.326Z,53.20
2019-05-12T00:14:03.309Z,53.30
2019-05-12T00:15:03.300Z,53.40
2019-05-12T00:16:03.294Z,53.50
2019-05-12T00:17:03.284Z,53.50
2019-05-12T00:18:03.304Z,53.40
2019-05-12T00:19:03.258Z,53.40
2019-05-12T00:20:03.249Z,53.40
2019-05-12T00:21:03.235Z,53.40
2019-05-12T00:22:03.230Z,53.40
2019-05-12T00:23:03.256Z,53.30
2019-05-12T00:24:03.221Z,53.20
2019-05-12T00:25:03.211Z,53.20
2019-05-12T00:26:03.181Z,53.20
2019-05-12T00:27:03.189Z,53.20
2019-05-12T00:28:03.167Z,53.09
2019-05-12T00:29:03.189Z,53.09
2019-05-12T00:30:03.139Z,53.20
2019-05-12T00:31:03.132Z,53.30
2019-05-12T00:32:03.123Z,53.40
2019-05-12T00:33:03.116Z,53.40
2019-05-12T00:34:03.099Z,53.40
2019-05-12T00:35:03.142Z,53.40
2019-05-12T00:36:03.087Z,53.30
2019-05-12T00:37:03.072Z,53.20
2019-05-12T00:38:03.059Z,53.09
2019-05-12T00:39:03.059Z,52.89
2019-05-12T00:40:03.049Z,52.29
2019-05-12T00:41:03.060Z,52.19
2019-05-12T00:42:03.047Z,52.29
2019-05-12T00:43:03.012Z,52.19
2019-05-12T00:44:02.990Z,52.39
2019-05-12T00:45:03.015Z,52.39
2019-05-12T00:46:02.993Z,52.29
2019-05-12T00:47:02.969Z,52.29
2019-05-12T00:48:02.983Z,52.29
2019-05-12T00:49:02.942Z,52.29
2019-05-12T00:50:02.933Z,52.49
2019-05-12T00:51:02.962Z,52.59
2019-05-12T00:52:02.915Z,52.49
2019-05-12T00:53:02.893Z,52.49
2019-05-12T00:54:02.886Z,52.39
2019-05-12T00:55:02.876Z,52.39
2019-05-12T00:56:02.867Z,52.29
2019-05-12T00:57:02.891Z,52.19
2019-05-12T00:58:02.838Z,52.09
2019-05-12T00:59:02.830Z,52.11
2019-05-12T01:00:02.819Z,52.09
2019-05-12T01:01:02.803Z,51.99
2019-05-12T01:02:02.855Z,51.99
2019-05-12T01:03:02.790Z,51.89
2019-05-12T01:04:02.774Z,51.91
2019-05-12T01:05:02.770Z,51.91
2019-05-12T01:06:02.765Z,51.99
2019-05-12T01:07:02.745Z,51.91
2019-05-12T01:08:02.770Z,51.79
2019-05-12T01:09:02.772Z,51.71
2019-05-12T01:10:04.854Z,51.68
2019-05-12T01:11:02.701Z,51.68
2019-05-12T01:12:02.688Z,51.71
2019-05-12T01:13:02.679Z,51.71
2019-05-12T01:14:02.671Z,51.71
2019-05-12T01:15:02.697Z,51.61
2019-05-12T01:16:02.699Z,51.61
2019-05-12T01:17:02.638Z,51.51
2019-05-12T01:18:02.627Z,51.49
2019-05-12T01:19:02.612Z,51.51
2019-05-12T01:20:02.606Z,51.41
2019-05-12T01:21:02.589Z,51.41
2019-05-12T01:22:02.631Z,51.41
2019-05-12T01:23:02.566Z,51.31
2019-05-12T01:24:03.461Z,51.31
2019-05-12T01:25:02.554Z,51.31
2019-05-12T01:26:02.538Z,51.21
2019-05-12T01:27:02.527Z,51.21
2019-05-12T01:28:02.561Z,51.21
2019-05-12T01:29:02.499Z,51.11
2019-05-12T01:30:02.488Z,51.11
2019-05-12T01:31:02.483Z,51.11
2019-05-12T01:32:02.474Z,51.11
2019-05-12T01:33:02.467Z,51.11
2019-05-12T01:34:02.480Z,51.01
2019-05-12T01:35:02.469Z,51.01
2019-05-12T01:36:02.425Z,51.01
2019-05-12T01:37:02.411Z,50.91
2019-05-12T01:38:02.401Z,50.91
2019-05-12T01:39:02.397Z,50.91
2019-05-12T01:40:02.439Z,50.91
2019-05-12T01:41:02.374Z,50.91
2019-05-12T01:42:02.361Z,50.91
2019-05-12T01:43:02.368Z,50.91
2019-05-12T01:44:02.338Z,50.91
2019-05-12T01:45:02.327Z,50.81
2019-05-12T01:46:02.361Z,50.81
2019-05-12T01:47:02.302Z,50.71
2019-05-12T01:48:02.294Z,50.71
2019-05-12T01:49:02.287Z,50.60
2019-05-12T01:50:02.274Z,50.60
2019-05-12T01:51:02.257Z,50.60
2019-05-12T01:52:02.299Z,50.60
2019-05-12T01:53:02.259Z,50.51
2019-05-12T01:54:11.659Z,50.51
2019-05-12T01:55:03.217Z,50.40
2019-05-12T01:56:02.209Z,50.40
2019-05-12T01:57:02.196Z,50.40
2019-05-12T01:58:02.224Z,50.40
2019-05-12T01:59:02.170Z,50.40
2019-05-12T02:00:02.163Z,50.40
2019-05-12T02:01:03.100Z,50.40
2019-05-12T02:02:02.139Z,50.40
2019-05-12T02:03:02.132Z,50.31
2019-05-12T02:04:02.179Z,50.31
2019-05-12T02:05:02.114Z,50.31
2019-05-12T02:06:02.109Z,50.31
2019-05-12T02:07:02.087Z,50.20
2019-05-12T02:08:02.077Z,50.20
2019-05-12T02:09:02.066Z,50.20
2019-05-12T02:10:02.107Z,50.20
2019-05-12T02:11:02.045Z,50.20
2019-05-12T02:12:02.033Z,50.10
2019-05-12T02:13:02.019Z,50.10
2019-05-12T02:14:02.014Z,50.10
2019-05-12T02:15:02.002Z,50.10
2019-05-12T02:16:02.047Z,50.00
2019-05-12T02:17:01.979Z,50.00
2019-05-12T02:18:01.973Z,50.10
2019-05-12T02:19:01.962Z,50.00
2019-05-12T02:20:01.946Z,50.00
2019-05-12T02:21:01.937Z,50.00
2019-05-12T02:22:01.964Z,50.00
2019-05-12T02:23:01.919Z,50.00
2019-05-12T02:24:01.905Z,49.90
2019-05-12T02:25:01.896Z,49.90
2019-05-12T02:26:01.883Z,49.90
2019-05-12T02:27:01.906Z,49.90
2019-05-12T02:28:01.868Z,49.90
2019-05-12T02:29:01.861Z,49.90
2019-05-12T02:30:01.840Z,49.90
2019-05-12T02:31:01.834Z,49.90
2019-05-12T02:32:01.815Z,49.80
2019-05-12T02:33:04.987Z,49.80
2019-05-12T02:34:01.798Z,49.90
2019-05-12T02:35:05.565Z,49.90
2019-05-12T02:36:04.635Z,49.90
2019-05-12T02:37:04.994Z,49.80
2019-05-12T02:38:04.726Z,49.80
2019-05-12T02:39:05.215Z,49.80
2019-05-12T02:40:04.720Z,49.80
2019-05-12T02:41:04.486Z,49.70
2019-05-12T02:42:04.923Z,49.70
2019-05-12T02:43:04.874Z,49.70
2019-05-12T02:44:05.006Z,49.60
2019-05-12T02:45:05.238Z,49.60
2019-05-12T02:46:04.767Z,49.60
2019-05-12T02:47:04.343Z,49.60
2019-05-12T02:48:04.779Z,49.70
2019-05-12T02:49:04.471Z,49.70
2019-05-12T02:50:05.066Z,49.70
2019-05-12T02:51:05.223Z,49.70
2019-05-12T02:52:04.959Z,49.70
2019-05-12T02:53:04.916Z,49.60
2019-05-12T02:54:01.580Z,49.60
2019-05-12T02:55:05.619Z,49.60
2019-05-12T02:56:04.730Z,49.50
2019-05-12T02:57:04.302Z,49.50
2019-05-12T02:58:04.625Z,49.60
2019-05-12T02:59:04.857Z,49.50
2019-05-12T03:00:04.711Z,49.60
2019-05-12T03:01:05.097Z,49.60
2019-05-12T03:02:05.031Z,49.50
2019-05-12T03:03:01.481Z,49.50
2019-05-12T03:04:01.466Z,49.50
2019-05-12T03:05:01.525Z,49.60
2019-05-12T03:06:01.448Z,49.50
2019-05-12T03:07:05.475Z,49.50
2019-05-12T03:08:04.547Z,49.60
2019-05-12T03:09:04.590Z,49.60
2019-05-12T03:10:04.596Z,49.60
2019-05-12T03:11:01.390Z,49.60
2019-05-12T03:12:01.384Z,49.60
2019-05-12T03:13:04.171Z,49.60
2019-05-12T03:14:03.916Z,49.70
2019-05-12T03:15:01.349Z,49.70
2019-05-12T03:16:04.572Z,49.60
2019-05-12T03:17:04.580Z,49.60
2019-05-12T03:18:01.317Z,49.70
2019-05-12T03:19:04.530Z,49.70
2019-05-12T03:20:04.694Z,49.70
2019-05-12T03:21:01.310Z,49.70
2019-05-12T03:22:01.270Z,49.70
2019-05-12T03:23:01.263Z,49.60
2019-05-12T03:24:01.248Z,49.60
2019-05-12T03:25:14.688Z,49.60
2019-05-12T03:26:05.142Z,49.50
2019-05-12T03:27:04.136Z,49.50
2019-05-12T03:28:01.210Z,49.50
2019-05-12T03:29:01.196Z,49.40
2019-05-12T03:30:09.996Z,49.40
2019-05-12T03:31:06.797Z,49.40
2019-05-12T03:32:07.525Z,49.40
2019-05-12T03:33:08.213Z,49.40
2019-05-12T03:34:08.019Z,49.40
2019-05-12T03:35:08.178Z,49.30
2019-05-12T03:36:08.651Z,49.30
2019-05-12T03:37:07.431Z,49.30
2019-05-12T03:38:04.414Z,49.30
2019-05-12T03:39:04.218Z,49.30
2019-05-12T03:40:01.117Z,49.30
2019-05-12T03:41:01.077Z,49.30
2019-05-12T03:42:01.084Z,49.30
2019-05-12T03:43:01.038Z,49.30
2019-05-12T03:44:01.031Z,49.30
2019-05-12T03:45:04.468Z,49.30
2019-05-12T03:46:01.005Z,49.30
2019-05-12T03:47:01.002Z,49.30
2019-05-12T03:48:04.046Z,49.19
2019-05-12T03:49:00.978Z,49.19
2019-05-12T03:50:04.353Z,49.19
2019-05-12T03:51:00.955Z,49.19
2019-05-12T03:52:00.964Z,49.10
2019-05-12T03:53:06.134Z,49.10
2019-05-12T03:54:04.776Z,49.10
2019-05-12T03:55:00.905Z,49.10
2019-05-12T03:56:04.136Z,49.10
2019-05-12T03:57:00.884Z,49.10
2019-05-12T03:58:00.923Z,49.10
2019-05-12T03:59:00.865Z,49.10
2019-05-12T04:00:00.865Z,49.10
2019-05-12T04:01:00.848Z,49.19
2019-05-12T04:02:00.840Z,49.19
2019-05-12T04:03:00.866Z,49.19
2019-05-12T04:04:00.806Z,49.10
2019-05-12T04:05:00.800Z,49.10
2019-05-12T04:06:00.791Z,49.10
2019-05-12T04:07:00.773Z,49.10
2019-05-12T04:08:00.768Z,49.10
2019-05-12T04:09:00.789Z,49.10
2019-05-12T04:10:00.741Z,49.19
2019-05-12T04:11:00.750Z,49.19
2019-05-12T04:12:00.718Z,49.19
2019-05-12T04:13:00.713Z,49.19
2019-05-12T04:14:00.703Z,49.10
2019-05-12T04:15:00.712Z,49.10
2019-05-12T04:16:00.688Z,49.10
2019-05-12T04:17:00.666Z,49.10
2019-05-12T04:18:00.664Z,49.10
2019-05-12T04:19:00.681Z,49.10
2019-05-12T04:20:00.631Z,49.10
2019-05-12T04:21:00.641Z,49.10
2019-05-12T04:22:00.616Z,49.10
2019-05-12T04:23:00.600Z,48.99
2019-05-12T04:24:00.598Z,48.99
2019-05-12T04:25:00.620Z,48.99
2019-05-12T04:26:08.611Z,48.99
2019-05-12T04:27:01.554Z,48.99
2019-05-12T04:28:00.543Z,48.99
2019-05-12T04:29:00.537Z,48.99
2019-05-12T04:30:00.525Z,48.99
2019-05-12T04:31:00.561Z,48.99
2019-05-12T04:32:00.507Z,48.99
2019-05-12T04:33:00.519Z,48.90
2019-05-12T04:34:00.490Z,48.90
2019-05-12T04:35:00.466Z,48.90
2019-05-12T04:36:00.460Z,48.79
2019-05-12T04:37:00.447Z,48.79
2019-05-12T04:38:00.438Z,48.79
2019-05-12T04:39:00.452Z,48.79
2019-05-12T04:40:00.413Z,48.79
2019-05-12T04:41:00.401Z,48.79
2019-05-12T04:42:00.399Z,48.79
2019-05-12T04:43:00.384Z,48.79
2019-05-12T04:44:00.388Z,48.79
2019-05-12T04:45:00.388Z,48.79
2019-05-12T04:46:00.354Z,48.79
2019-05-12T04:47:00.335Z,48.69
2019-05-12T04:48:00.341Z,48.69
2019-05-12T04:49:00.313Z,48.69
2019-05-12T04:50:00.318Z,48.59
2019-05-12T04:51:00.327Z,48.69
2019-05-12T04:52:00.288Z,48.69
2019-05-12T04:53:00.270Z,48.79
2019-05-12T04:54:00.264Z,48.69
2019-05-12T04:55:00.251Z,48.59
2019-05-12T04:56:14.468Z,48.59
2019-05-12T04:57:03.921Z,48.59
2019-05-12T04:58:00.221Z,48.52
2019-05-12T04:59:00.240Z,48.52
2019-05-12T05:00:00.195Z,48.59
2019-05-12T05:01:00.186Z,48.61
2019-05-12T05:02:00.174Z,48.69
2019-05-12T05:03:00.162Z,48.72
2019-05-12T05:04:00.159Z,48.69
2019-05-12T05:05:00.207Z,48.79
2019-05-12T05:06:00.131Z,48.69
2019-05-12T05:07:00.126Z,48.69
2019-05-12T05:08:00.118Z,48.61
2019-05-12T05:09:00.103Z,48.59
2019-05-12T05:10:00.122Z,48.61
2019-05-12T05:11:00.078Z,48.61
2019-05-12T05:12:00.067Z,48.61
2019-05-12T05:13:00.053Z,48.61
2019-05-12T05:14:00.045Z,48.49
2019-05-12T05:15:00.057Z,48.49
2019-05-12T05:16:00.071Z,48.52
2019-05-12T05:17:00.010Z,48.41
2019-05-12T05:17:59.997Z,48.39
2019-05-12T05:18:59.994Z,48.41
2019-05-12T05:19:59.984Z,48.39
2019-05-12T05:20:59.970Z,48.41
2019-05-12T05:21:59.987Z,48.32
2019-05-12T05:22:59.945Z,48.32
2019-05-12T05:23:59.933Z,48.32
2019-05-12T05:24:59.931Z,48.29
2019-05-12T05:25:59.911Z,48.41
2019-05-12T05:26:59.960Z,48.41
2019-05-12T05:27:59.890Z,48.52
2019-05-12T05:28:59.883Z,48.52
2019-05-12T05:29:59.893Z,48.52
2019-05-12T05:30:59.865Z,48.52
2019-05-12T05:31:59.849Z,48.52
2019-05-12T05:32:59.879Z,48.52
2019-05-12T05:33:59.831Z,48.52
2019-05-12T05:34:59.821Z,48.52
2019-05-12T05:35:59.811Z,48.52
2019-05-12T05:37:01.676Z,48.52
2019-05-12T05:37:59.790Z,48.61
2019-05-12T05:39:01.833Z,48.61
2019-05-12T05:39:59.786Z,48.61
2019-05-12T05:41:04.896Z,48.61
2019-05-12T05:42:00.743Z,48.61
2019-05-12T05:43:03.691Z,48.52
2019-05-12T05:44:02.977Z,48.52
2019-05-12T05:44:59.713Z,48.41
2019-05-12T05:46:02.736Z,48.52
2019-05-12T05:47:00.692Z,48.41
2019-05-12T05:48:04.710Z,48.32
2019-05-12T05:49:00.671Z,48.41
2019-05-12T05:49:59.656Z,48.41
2019-05-12T05:50:59.946Z,48.41
2019-05-12T05:52:00.640Z,48.32
2019-05-12T05:52:59.633Z,48.32
2019-05-12T05:53:59.652Z,48.21
2019-05-12T05:54:59.600Z,48.21
2019-05-12T05:56:00.304Z,48.21
2019-05-12T05:57:02.949Z,48.21
2019-05-12T05:58:07.804Z,48.21
2019-05-12T05:59:00.605Z,48.21
2019-05-12T05:59:59.554Z,48.21
2019-05-12T06:01:03.734Z,48.11
2019-05-12T06:02:00.529Z,48.11
2019-05-12T06:02:59.550Z,48.11
2019-05-12T06:04:04.472Z,48.01
2019-05-12T06:05:00.520Z,48.01
2019-05-12T06:06:01.467Z,48.01
2019-05-12T06:07:00.477Z,48.01
2019-05-12T06:07:59.460Z,48.01
2019-05-12T06:08:59.455Z,48.01
2019-05-12T06:09:59.475Z,48.01
2019-05-12T06:10:59.431Z,47.91
2019-05-12T06:12:05.238Z,47.91
2019-05-12T06:13:00.404Z,48.01
2019-05-12T06:14:03.244Z,48.01
2019-05-12T06:15:00.412Z,48.01
2019-05-12T06:15:59.385Z,48.01
2019-05-12T06:16:59.365Z,48.11
2019-05-12T06:17:59.354Z,48.11
2019-05-12T06:18:59.338Z,48.11
2019-05-12T06:19:59.324Z,48.11
2019-05-12T06:20:59.359Z,48.11
2019-05-12T06:21:59.306Z,48.11
2019-05-12T06:22:59.293Z,48.11
2019-05-12T06:23:59.286Z,48.11
2019-05-12T06:24:59.275Z,48.11
2019-05-12T06:25:59.282Z,48.11
2019-05-12T06:27:00.781Z,48.01
2019-05-12T06:28:01.458Z,48.01
2019-05-12T06:28:59.237Z,48.01
2019-05-12T06:30:00.792Z,48.01
2019-05-12T06:30:59.220Z,48.01
2019-05-12T06:31:59.982Z,48.01
2019-05-12T06:33:00.190Z,48.01
2019-05-12T06:33:59.178Z,48.01
2019-05-12T06:35:01.523Z,48.01
2019-05-12T06:36:00.160Z,48.01
2019-05-12T06:37:03.065Z,48.01
2019-05-12T06:38:01.806Z,48.01
2019-05-12T06:38:59.136Z,48.01
2019-05-12T06:40:00.620Z,48.01
2019-05-12T06:40:59.102Z,48.01
2019-05-12T06:42:11.597Z,48.01
2019-05-12T06:43:00.109Z,48.01
2019-05-12T06:43:59.067Z,48.01
2019-05-12T06:44:59.058Z,48.01
2019-05-12T06:45:59.053Z,48.11
2019-05-12T06:47:03.627Z,48.11
2019-05-12T06:48:00.054Z,48.11
2019-05-12T06:49:00.834Z,48.11
2019-05-12T06:50:00.007Z,48.11
2019-05-12T06:50:58.999Z,48.01
2019-05-12T06:52:01.434Z,48.01
2019-05-12T06:52:59.007Z,48.01
2019-05-12T06:54:00.830Z,48.01
2019-05-12T06:54:58.953Z,47.71
2019-05-12T06:55:58.937Z,47.61
2019-05-12T06:57:18.680Z,47.71
2019-05-12T06:57:59.944Z,47.81
2019-05-12T06:59:01.007Z,47.91
2019-05-12T06:59:59.927Z,47.41
2019-05-12T07:01:04.439Z,47.61
2019-05-12T07:02:00.581Z,47.71
2019-05-12T07:02:58.870Z,47.61
2019-05-12T07:04:04.089Z,47.61
2019-05-12T07:04:59.841Z,47.61
2019-05-12T07:05:58.864Z,47.81
2019-05-12T07:07:00.862Z,48.01
2019-05-12T07:07:58.808Z,48.21
2019-05-12T07:09:06.385Z,48.32
2019-05-12T07:10:08.016Z,48.01
2019-05-12T07:11:02.070Z,48.61
2019-05-12T07:12:06.214Z,49.93
2019-05-12T07:13:02.602Z,49.73
2019-05-12T07:14:04.141Z,49.52
2019-05-12T07:14:59.768Z,49.62
2019-05-12T07:15:58.725Z,49.70
2019-05-12T07:17:01.476Z,49.30
2019-05-12T07:17:59.732Z,49.80
2019-05-12T07:18:58.684Z,49.10
2019-05-12T07:19:58.682Z,48.79
2019-05-12T07:20:58.668Z,48.79
2019-05-12T07:22:00.188Z,48.90
2019-05-12T07:22:58.677Z,48.99
2019-05-12T07:24:00.416Z,48.90
2019-05-12T07:24:59.619Z,48.99
2019-05-12T07:25:58.616Z,48.99
2019-05-12T07:27:04.113Z,49.10
2019-05-12T07:28:01.515Z,49.10
2019-05-12T07:28:59.576Z,49.19
2019-05-12T07:29:58.571Z,49.30
2019-05-12T07:30:58.556Z,49.30
2019-05-12T07:31:58.552Z,49.40
2019-05-12T07:33:01.105Z,49.40
2019-05-12T07:33:58.565Z,49.50
2019-05-12T07:34:58.517Z,49.40
2019-05-12T07:36:01.503Z,48.90
2019-05-12T07:36:59.497Z,48.90
2019-05-12T07:37:58.480Z,49.50
2019-05-12T07:39:03.950Z,49.30
2019-05-12T07:39:59.540Z,49.19
2019-05-12T07:41:00.778Z,50.20
2019-05-12T07:41:59.464Z,51.01
2019-05-12T07:42:58.431Z,51.11
2019-05-12T07:44:00.730Z,50.71
2019-05-12T07:44:58.444Z,50.40
2019-05-12T07:46:02.227Z,50.31
2019-05-12T07:46:59.385Z,50.10
2019-05-12T07:47:59.396Z,49.90
2019-05-12T07:48:59.366Z,49.70
2019-05-12T07:49:58.360Z,49.40
2019-05-12T07:51:00.580Z,49.30
2019-05-12T07:51:58.384Z,49.70
2019-05-12T07:52:58.330Z,49.60
2019-05-12T07:53:59.018Z,50.00
2019-05-12T07:54:58.302Z,50.20
2019-05-12T07:55:58.301Z,50.10
2019-05-12T07:57:05.385Z,50.10
2019-05-12T07:58:58.264Z,50.31
2019-05-12T07:59:58.260Z,50.10
2019-05-12T08:01:02.413Z,50.31
2019-05-12T08:01:59.232Z,50.31
2019-05-12T08:02:58.222Z,50.31
2019-05-12T08:04:01.139Z,50.60
2019-05-12T08:04:58.208Z,50.51
2019-05-12T08:06:01.669Z,50.60
2019-05-12T08:06:59.186Z,51.41
2019-05-12T08:08:00.651Z,51.31
2019-05-12T08:08:59.250Z,51.11
2019-05-12T08:09:58.149Z,52.31
2019-05-12T08:10:58.138Z,52.22
2019-05-12T08:11:58.133Z,53.12
2019-05-12T08:13:00.775Z,53.22
2019-05-12T08:13:58.109Z,52.31
2019-05-12T08:14:59.417Z,51.91
2019-05-12T08:15:59.102Z,51.01
2019-05-12T08:17:02.067Z,50.71
2019-05-12T08:17:59.723Z,50.51
2019-05-12T08:18:58.052Z,50.40
2019-05-12T08:19:58.049Z,50.31
2019-05-12T08:21:00.030Z,50.10
2019-05-12T08:21:58.021Z,49.80
2019-05-12T08:22:59.560Z,49.70
2019-05-12T08:23:59.002Z,49.40
2019-05-12T08:24:57.994Z,49.40
2019-05-12T08:25:57.982Z,49.60
2019-05-12T08:27:03.045Z,49.60
2019-05-12T08:28:11.101Z,49.40
2019-05-12T08:28:58.944Z,49.19
2019-05-12T08:30:01.087Z,49.02
2019-05-12T08:30:58.926Z,48.79
2019-05-12T08:31:57.911Z,47.91
2019-05-12T08:33:07.253Z,48.41
2019-05-12T08:33:58.923Z,47.91
2019-05-12T08:34:57.883Z,47.41
2019-05-12T08:36:05.514Z,47.11
2019-05-12T08:36:58.863Z,47.11
2019-05-12T08:37:57.857Z,47.61
2019-05-12T08:38:57.886Z,47.61
2019-05-12T08:40:03.111Z,47.51
2019-05-12T08:40:58.819Z,47.61
2019-05-12T08:41:57.809Z,47.61
2019-05-12T08:42:59.425Z,47.91
2019-05-12T08:43:58.831Z,48.01
2019-05-12T08:44:57.776Z,48.01
2019-05-12T08:46:00.228Z,47.91
2019-05-12T08:46:58.755Z,47.91
2019-05-12T08:47:57.771Z,47.91
2019-05-12T08:49:02.300Z,47.91
2019-05-12T08:49:58.990Z,47.91
2019-05-12T08:50:57.713Z,48.01
2019-05-12T08:52:00.069Z,48.11
2019-05-12T08:52:57.742Z,48.21
2019-05-12T08:54:02.661Z,48.32
2019-05-12T08:54:58.673Z,48.32
2019-05-12T08:55:57.663Z,48.41
2019-05-12T08:57:01.019Z,48.52
2019-05-12T08:57:57.636Z,48.61
2019-05-12T08:58:57.653Z,48.72
2019-05-12T09:00:02.892Z,48.82
2019-05-12T09:00:58.602Z,48.82
2019-05-12T09:02:00.485Z,48.92
2019-05-12T09:02:58.583Z,49.02
2019-05-12T09:04:00.365Z,49.02
2019-05-12T09:04:58.591Z,49.10
2019-05-12T09:05:57.558Z,49.12
2019-05-12T09:06:59.837Z,49.19
2019-05-12T09:07:57.533Z,49.19
2019-05-12T09:08:57.521Z,49.22
2019-05-12T09:09:57.539Z,49.32
2019-05-12T09:10:57.497Z,49.30
2019-05-12T09:11:57.560Z,49.40
2019-05-12T09:12:57.478Z,49.40
2019-05-12T09:14:00.573Z,49.40
2019-05-12T09:14:57.472Z,49.40
2019-05-12T09:15:57.494Z,49.50
2019-05-12T09:17:02.755Z,49.50
2019-05-12T09:17:58.422Z,49.50
2019-05-12T09:18:57.443Z,49.50
2019-05-12T09:20:05.960Z,49.50
2019-05-12T09:20:58.437Z,49.50
2019-05-12T09:21:57.383Z,49.60
2019-05-12T09:23:00.527Z,49.60
2019-05-12T09:23:57.365Z,49.60
2019-05-12T09:25:01.738Z,49.60
2019-05-12T09:25:58.340Z,49.70
2019-05-12T09:26:58.922Z,49.70
2019-05-12T09:27:58.346Z,49.70
2019-05-12T09:28:57.306Z,49.70
2019-05-12T09:29:59.053Z,49.73
2019-05-12T09:30:58.287Z,49.73
2019-05-12T09:31:59.380Z,49.70
2019-05-12T09:32:58.304Z,49.73
2019-05-12T09:33:57.926Z,49.70
2019-05-12T09:34:58.159Z,49.73
2019-05-12T09:35:57.234Z,49.73
2019-05-12T09:36:59.555Z,49.82
2019-05-12T09:37:57.214Z,49.82
2019-05-12T09:39:01.520Z,49.82
2019-05-12T09:39:57.195Z,49.82
2019-05-12T09:41:00.740Z,49.82
2019-05-12T09:41:58.169Z,49.82
2019-05-12T09:43:00.262Z,49.93
2019-05-12T09:43:58.141Z,49.93
2019-05-12T09:45:00.118Z,49.93
2019-05-12T09:45:58.123Z,49.93
2019-05-12T09:46:57.110Z,49.93
2019-05-12T09:47:58.889Z,50.02
2019-05-12T09:48:58.120Z,50.02
2019-05-12T09:49:57.077Z,50.02
2019-05-12T09:51:00.730Z,50.02
2019-05-12T09:51:58.060Z,50.02
2019-05-12T09:53:00.823Z,50.02
2019-05-12T09:53:58.063Z,50.02
2019-05-12T09:54:57.028Z,50.02
2019-05-12T09:55:58.595Z,50.02
2019-05-12T09:56:59.459Z,50.02
2019-05-12T09:57:56.998Z,50.02
2019-05-12T09:59:01.557Z,50.02
2019-05-12T09:59:59.608Z,49.93
2019-05-12T10:00:56.963Z,49.93
2019-05-12T10:01:56.950Z,49.93
2019-05-12T10:02:59.659Z,49.93
2019-05-12T10:03:56.925Z,49.93
2019-05-12T10:05:00.785Z,49.93
2019-05-12T10:05:56.916Z,49.82
2019-05-12T10:06:56.925Z,49.82
2019-05-12T10:07:56.891Z,49.82
2019-05-12T10:08:56.880Z,49.82
2019-05-12T10:09:58.864Z,49.82
2019-05-12T10:10:56.857Z,49.82
2019-05-12T10:12:00.695Z,49.82
2019-05-12T10:12:57.836Z,49.73
2019-05-12T10:14:00.441Z,49.82
2019-05-12T10:14:57.810Z,49.82
2019-05-12T10:15:58.638Z,49.82
2019-05-12T10:16:57.815Z,49.82
2019-05-12T10:18:00.242Z,49.82
2019-05-12T10:18:57.765Z,49.93
2019-05-12T10:19:58.162Z,49.93
2019-05-12T10:20:56.749Z,49.93
2019-05-12T10:21:59.481Z,49.93
2019-05-12T10:22:56.754Z,49.93
2019-05-12T10:24:00.458Z,49.93
2019-05-12T10:24:58.752Z,50.02
2019-05-12T10:26:01.381Z,50.02
2019-05-12T10:26:57.678Z,49.93
2019-05-12T10:27:56.673Z,49.93
2019-05-12T10:28:58.410Z,50.02
2019-05-12T10:29:56.648Z,50.02
2019-05-12T10:30:57.052Z,50.02
2019-05-12T10:31:56.629Z,50.02
2019-05-12T10:32:56.630Z,50.02
2019-05-12T10:33:58.250Z,50.02
2019-05-12T10:34:56.624Z,50.02
2019-05-12T10:36:02.784Z,50.02
2019-05-12T10:36:57.592Z,50.02
2019-05-12T10:38:00.254Z,50.02
2019-05-12T10:38:57.548Z,50.02
2019-05-12T10:39:56.534Z,50.02
2019-05-12T10:40:56.526Z,50.02
2019-05-12T10:41:56.552Z,50.02
2019-05-12T10:42:56.508Z,50.02
2019-05-12T10:43:57.883Z,50.02
2019-05-12T10:44:56.775Z,50.02
2019-05-12T10:45:56.491Z,50.02
2019-05-12T10:46:56.464Z,50.02
2019-05-12T10:47:56.476Z,50.02
2019-05-12T10:48:56.442Z,50.02
2019-05-12T10:49:56.427Z,50.02
2019-05-12T10:50:56.415Z,50.02
2019-05-12T10:51:56.409Z,50.02
2019-05-12T10:52:56.398Z,49.93
2019-05-12T10:54:04.577Z,49.93
2019-05-12T10:54:57.376Z,49.82
2019-05-12T10:55:56.380Z,49.82
2019-05-12T10:56:56.379Z,49.82
2019-05-12T10:58:01.342Z,49.73
2019-05-12T10:58:57.327Z,49.73
2019-05-12T10:59:56.318Z,49.73
2019-05-12T11:00:58.996Z,49.73
2019-05-12T11:01:57.346Z,49.73
2019-05-12T11:02:56.296Z,49.73
2019-05-12T11:03:56.269Z,49.73
2019-05-12T11:04:56.266Z,49.73
2019-05-12T11:06:02.488Z,49.73
2019-05-12T11:06:57.244Z,49.62
2019-05-12T11:08:00.231Z,49.62
2019-05-12T11:08:57.215Z,49.52
2019-05-12T11:09:56.205Z,49.52
2019-05-12T11:10:59.985Z,49.52
2019-05-12T11:11:57.187Z,49.52
2019-05-12T11:12:59.090Z,49.52
2019-05-12T11:13:57.216Z,49.62
2019-05-12T11:14:56.162Z,49.52
2019-05-12T11:15:56.140Z,49.52
2019-05-12T11:16:56.132Z,49.52
2019-05-12T11:17:56.120Z,49.42
2019-05-12T11:19:00.331Z,49.42
2019-05-12T11:19:57.143Z,49.42
2019-05-12T11:20:56.083Z,49.32
2019-05-12T11:21:56.075Z,49.32
2019-05-12T11:22:56.062Z,49.22
2019-05-12T11:23:56.054Z,49.22
2019-05-12T11:24:56.046Z,49.12
2019-05-12T11:25:56.062Z,49.12
2019-05-12T11:26:56.029Z,49.02
2019-05-12T11:27:56.015Z,49.02
2019-05-12T11:28:56.007Z,48.92
2019-05-12T11:29:55.992Z,48.92
2019-05-12T11:30:55.976Z,48.92
2019-05-12T11:31:56.018Z,49.02
2019-05-12T11:32:55.961Z,49.02
2019-05-12T11:33:55.947Z,49.02
2019-05-12T11:34:55.945Z,49.02
2019-05-12T11:35:55.928Z,49.02
2019-05-12T11:36:55.919Z,49.02
2019-05-12T11:37:55.938Z,49.02
2019-05-12T11:38:55.900Z,49.12
2019-05-12T11:39:55.881Z,49.12
2019-05-12T11:40:55.879Z,49.22
2019-05-12T11:41:55.874Z,49.12
2019-05-12T11:43:01.012Z,49.12
2019-05-12T11:43:56.866Z,49.12
2019-05-12T11:44:55.833Z,49.02
2019-05-12T11:45:55.819Z,49.02
2019-05-12T11:46:55.810Z,48.92
2019-05-12T11:47:56.896Z,48.92
2019-05-12T11:48:56.821Z,48.92
2019-05-12T11:49:58.664Z,48.92
2019-05-12T11:50:56.765Z,48.92
2019-05-12T11:51:55.790Z,49.02
2019-05-12T11:52:55.743Z,49.02
2019-05-12T11:53:55.735Z,49.02
2019-05-12T11:54:55.751Z,49.12
2019-05-12T11:55:55.713Z,49.22
2019-05-12T11:56:55.702Z,49.22
2019-05-12T11:58:00.384Z,49.22
2019-05-12T11:58:56.685Z,49.22
2019-05-12T12:00:02.039Z,49.22
2019-05-12T12:00:58.528Z,49.12
2019-05-12T12:01:56.646Z,49.12
2019-05-12T12:02:55.636Z,49.02
2019-05-12T12:03:55.627Z,49.02
2019-05-12T12:04:55.635Z,48.92
2019-05-12T12:05:55.639Z,48.92
2019-05-12T12:06:55.594Z,48.92
2019-05-12T12:07:56.167Z,49.02
2019-05-12T12:08:55.579Z,49.02
2019-05-12T12:09:59.325Z,49.02
2019-05-12T12:10:55.590Z,49.12
2019-05-12T12:12:02.417Z,49.22
2019-05-12T12:12:56.560Z,49.22
2019-05-12T12:14:00.269Z,49.22
2019-05-12T12:14:56.511Z,49.32
2019-05-12T12:16:00.574Z,49.32
2019-05-12T12:16:56.524Z,49.32
2019-05-12T12:17:55.476Z,49.32
2019-05-12T12:19:02.366Z,49.32
2019-05-12T12:19:56.461Z,49.22
2019-05-12T12:21:02.630Z,49.22
2019-05-12T12:21:56.463Z,49.22
2019-05-12T12:23:00.304Z,49.22
2019-05-12T12:23:56.415Z,49.22
2019-05-12T12:24:55.402Z,49.32
2019-05-12T12:25:55.392Z,49.32
2019-05-12T12:26:55.390Z,49.32
2019-05-12T12:27:55.429Z,49.32
2019-05-12T12:28:55.364Z,49.32
2019-05-12T12:29:55.359Z,49.32
2019-05-12T12:31:00.285Z,49.32
2019-05-12T12:31:56.338Z,49.32
2019-05-12T12:33:00.317Z,49.32
2019-05-12T12:33:56.342Z,49.32
2019-05-12T12:34:55.299Z,49.32
2019-05-12T12:36:00.565Z,49.32
2019-05-12T12:36:56.286Z,49.42
2019-05-12T12:37:55.270Z,49.42
2019-05-12T12:38:55.259Z,49.42
2019-05-12T12:39:55.287Z,49.42
2019-05-12T12:40:55.239Z,49.22
2019-05-12T12:42:00.152Z,49.32
2019-05-12T12:42:56.216Z,49.32
2019-05-12T12:43:55.210Z,49.32
2019-05-12T12:44:58.871Z,49.42
2019-05-12T12:45:56.226Z,49.52
2019-05-12T12:46:59.821Z,49.52
2019-05-12T12:47:56.162Z,49.52
2019-05-12T12:48:55.150Z,49.42
2019-05-12T12:49:55.138Z,49.32
2019-05-12T12:50:55.131Z,49.32
2019-05-12T12:51:55.148Z,49.22
2019-05-12T12:52:55.110Z,49.22